createdAt,value
2018-10-05T00:01:52.474Z,25.10
2018-10-05T00:04:20.969Z,23.93
2018-10-05T00:06:49.510Z,25.67
2018-10-05T00:09:18.018Z,27.30
2018-10-05T00:11:46.551Z,23.90
2018-10-05T00:14:15.871Z,25.13
2018-10-05T00:16:44.417Z,25.77
2018-10-05T00:19:13.009Z,25.00
2018-10-05T00:21:42.264Z,24.60
2018-10-05T00:24:10.850Z,25.47
2018-10-05T00:26:40.055Z,26.67
2018-10-05T00:29:08.589Z,24.60
2018-10-05T00:31:38.134Z,25.63
2018-10-05T00:34:06.677Z,26.47
2018-10-05T00:36:35.191Z,25.70
2018-10-05T00:39:04.655Z,25.50
2018-10-05T00:41:33.186Z,23.73
2018-10-05T00:44:01.746Z,25.37
2018-10-05T00:47:02.010Z,27.23
2018-10-05T00:49:30.567Z,25.00
2018-10-05T00:51:59.800Z,25.83
2018-10-05T00:54:28.330Z,26.30
2018-10-05T00:56:56.879Z,23.97
2018-10-05T00:59:25.479Z,26.70
2018-10-05T01:01:54.092Z,25.10
2018-10-05T01:04:22.535Z,24.17
2018-10-05T01:06:51.163Z,23.70
2018-10-05T01:09:19.678Z,24.70
2018-10-05T01:11:48.187Z,23.20
2018-10-05T01:14:16.735Z,23.67
2018-10-05T01:16:45.298Z,23.17
2018-10-05T01:19:14.043Z,24.30
2018-10-05T01:21:42.567Z,25.73
2018-10-05T01:24:11.079Z,24.67
2018-10-05T01:26:39.636Z,24.33
2018-10-05T01:29:08.143Z,22.73
2018-10-05T01:31:36.682Z,23.60
2018-10-05T01:34:05.228Z,21.33
2018-10-05T01:36:33.756Z,21.90
2018-10-05T01:39:02.619Z,20.20
2018-10-05T01:41:31.203Z,22.80
2018-10-05T01:43:59.781Z,20.37
2018-10-05T01:46:28.332Z,23.00
2018-10-05T01:48:56.821Z,21.20
2018-10-05T01:51:35.601Z,21.17
2018-10-05T01:54:05.859Z,22.20
2018-10-05T01:56:35.044Z,20.07
2018-10-05T01:59:03.956Z,20.53
2018-10-05T02:01:33.046Z,21.17
2018-10-05T02:04:01.832Z,20.20
2018-10-05T02:06:30.362Z,20.93
2018-10-05T02:08:58.954Z,19.90
2018-10-05T02:11:27.950Z,19.93
2018-10-05T02:13:56.471Z,19.10
2018-10-05T02:16:25.056Z,19.73
2018-10-05T02:18:53.573Z,19.53
2018-10-05T02:21:22.069Z,19.27
2018-10-05T02:23:50.617Z,18.90
2018-10-05T02:26:19.130Z,18.37
2018-10-05T02:28:47.633Z,20.57
2018-10-05T02:31:16.192Z,19.13
2018-10-05T02:33:44.797Z,20.33
2018-10-05T02:36:13.345Z,19.33
2018-10-05T02:38:41.897Z,17.60
2018-10-05T02:41:10.498Z,19.30
2018-10-05T02:43:39.067Z,18.57
2018-10-05T02:46:07.629Z,18.47
2018-10-05T02:48:36.635Z,17.83
2018-10-05T02:51:05.411Z,20.77
2018-10-05T02:53:34.004Z,17.90
2018-10-05T02:56:02.578Z,17.83
2018-10-05T02:58:31.145Z,18.27
2018-10-05T03:01:11.246Z,16.03
2018-10-05T03:03:39.891Z,16.37
2018-10-05T03:06:08.411Z,16.57
2018-10-05T03:08:36.946Z,16.97
2018-10-05T03:11:06.933Z,17.50
2018-10-05T03:13:35.674Z,16.50
2018-10-05T03:16:04.304Z,16.13
2018-10-05T03:18:32.871Z,14.80
2018-10-05T03:21:01.639Z,16.20
2018-10-05T03:23:30.191Z,15.83
2018-10-05T03:25:58.852Z,15.60
2018-10-05T03:28:59.868Z,16.33
2018-10-05T03:31:28.443Z,15.00
2018-10-05T03:33:57.024Z,16.33
2018-10-05T03:36:25.522Z,16.63
2018-10-05T03:38:54.253Z,17.50
2018-10-05T03:41:22.962Z,15.47
2018-10-05T03:43:51.537Z,16.73
2018-10-05T03:46:20.095Z,16.27
2018-10-05T03:48:48.750Z,15.13
2018-10-05T03:51:17.333Z,16.83
2018-10-05T03:53:45.931Z,15.33
2018-10-05T03:56:14.619Z,15.73
2018-10-05T03:58:43.263Z,16.30
2018-10-05T04:01:11.843Z,14.00
2018-10-05T04:03:40.388Z,16.60
2018-10-05T04:06:09.499Z,16.90
2018-10-05T04:08:38.113Z,15.43
2018-10-05T04:11:06.748Z,16.00
2018-10-05T04:13:35.291Z,16.70
2018-10-05T04:16:03.880Z,15.73
2018-10-05T04:18:32.423Z,17.10
2018-10-05T04:21:01.027Z,15.00
2018-10-05T04:23:30.334Z,15.93
2018-10-05T04:25:58.864Z,15.80
2018-10-05T04:28:27.423Z,16.67
2018-10-05T04:30:56.020Z,16.40
2018-10-05T04:33:24.682Z,16.27
2018-10-05T04:35:53.264Z,15.73
2018-10-05T04:38:21.834Z,15.00
2018-10-05T04:40:50.355Z,17.50
2018-10-05T04:43:18.956Z,18.10
2018-10-05T04:45:47.511Z,15.73
2018-10-05T04:48:16.091Z,15.40
2018-10-05T04:50:44.677Z,14.77
2018-10-05T04:53:13.211Z,17.57
2018-10-05T04:55:41.811Z,16.60
2018-10-05T04:58:10.840Z,17.13
2018-10-05T05:00:39.459Z,17.37
2018-10-05T05:03:08.152Z,16.63
2018-10-05T05:05:36.661Z,17.33
2018-10-05T05:08:05.197Z,16.43
2018-10-05T05:10:33.758Z,15.67
2018-10-05T05:13:02.262Z,16.37
2018-10-05T05:15:30.839Z,15.57
2018-10-05T05:17:59.422Z,17.23
2018-10-05T05:20:27.962Z,14.87
2018-10-05T05:22:56.515Z,16.70
2018-10-05T05:25:25.093Z,15.87
2018-10-05T05:27:53.678Z,16.27
2018-10-05T05:30:22.495Z,14.80
2018-10-05T05:32:51.014Z,14.40
2018-10-05T05:35:19.684Z,16.10
2018-10-05T05:37:48.222Z,15.10
2018-10-05T05:40:16.848Z,17.33
2018-10-05T05:42:45.449Z,15.70
2018-10-05T05:45:14.177Z,16.00
2018-10-05T05:47:42.709Z,17.00
2018-10-05T05:50:11.295Z,15.60
2018-10-05T05:52:39.808Z,17.10
2018-10-05T05:55:08.361Z,16.87
2018-10-05T05:57:36.959Z,16.33
2018-10-05T06:00:05.636Z,15.47
2018-10-05T06:02:34.183Z,17.57
2018-10-05T06:05:02.723Z,17.50
2018-10-05T06:07:31.266Z,16.57
2018-10-05T06:09:59.908Z,17.40
2018-10-05T06:12:28.447Z,16.27
2018-10-05T06:14:56.983Z,16.47
2018-10-05T06:17:25.537Z,17.70
2018-10-05T06:19:54.066Z,17.63
2018-10-05T06:22:22.905Z,16.93
2018-10-05T06:24:51.142Z,16.00
2018-10-05T06:27:19.772Z,15.60
2018-10-05T06:29:48.652Z,15.50
2018-10-05T06:32:17.190Z,15.40
2018-10-05T06:34:45.736Z,15.77
2018-10-05T06:37:14.358Z,16.43
2018-10-05T06:39:42.902Z,16.00
2018-10-05T06:42:11.585Z,15.43
2018-10-05T06:44:40.151Z,15.37
2018-10-05T06:47:09.667Z,17.47
2018-10-05T06:49:38.201Z,15.30
2018-10-05T06:52:06.783Z,16.60
2018-10-05T06:54:35.368Z,15.43
2018-10-05T06:57:03.903Z,16.23
2018-10-05T06:59:32.482Z,16.00
2018-10-05T07:02:01.098Z,14.50
2018-10-05T07:04:30.195Z,14.97
2018-10-05T07:06:58.755Z,14.20
2018-10-05T07:09:27.376Z,14.67
2018-10-05T07:11:55.927Z,14.30
2018-10-05T07:14:24.525Z,15.80
2018-10-05T07:16:53.096Z,12.30
2018-10-05T07:19:21.644Z,14.60
2018-10-05T07:21:50.257Z,14.70
2018-10-05T07:24:18.822Z,13.10
2018-10-05T07:26:47.379Z,12.47
2018-10-05T07:29:15.899Z,13.70
2018-10-05T07:31:44.466Z,12.03
2018-10-05T07:34:13.127Z,13.37
2018-10-05T07:36:41.668Z,13.00
2018-10-05T07:39:10.930Z,12.13
2018-10-05T07:41:39.564Z,14.27
2018-10-05T07:44:09.026Z,12.60
2018-10-05T07:46:37.663Z,13.20
2018-10-05T07:49:06.283Z,13.07
2018-10-05T07:51:34.872Z,12.53
2018-10-05T07:54:03.475Z,12.93
2018-10-05T07:56:32.014Z,11.27
2018-10-05T07:59:00.552Z,13.53
2018-10-05T08:01:29.118Z,12.97
2018-10-05T08:03:57.666Z,12.83
2018-10-05T08:06:26.287Z,13.87
2018-10-05T08:08:54.837Z,13.30
2018-10-05T08:11:23.423Z,13.23
2018-10-05T08:13:52.005Z,12.53
2018-10-05T08:16:21.199Z,12.50
2018-10-05T08:18:49.747Z,13.40
2018-10-05T08:21:18.343Z,12.90
2018-10-05T08:23:46.831Z,12.33
2018-10-05T08:26:15.345Z,13.00
2018-10-05T08:28:43.920Z,14.03
2018-10-05T08:31:12.491Z,12.87
2018-10-05T08:33:41.114Z,14.10
2018-10-05T08:36:09.647Z,12.90
2018-10-05T08:38:38.249Z,13.97
2018-10-05T08:41:06.829Z,14.13
2018-10-05T08:43:35.383Z,12.37
2018-10-05T08:46:04.094Z,14.13
2018-10-05T08:48:32.629Z,13.87
2018-10-05T08:51:01.782Z,13.20
2018-10-05T08:53:30.360Z,12.97
2018-10-05T08:55:58.942Z,13.40
2018-10-05T08:58:27.515Z,13.03
2018-10-05T09:00:56.102Z,13.23
2018-10-05T09:03:24.714Z,13.07
2018-10-05T09:05:53.411Z,14.53
2018-10-05T09:08:22.043Z,13.37
2018-10-05T09:10:50.574Z,13.70
2018-10-05T09:13:19.162Z,13.97
2018-10-05T09:15:47.707Z,13.23
2018-10-05T09:18:16.370Z,13.60
2018-10-05T09:20:44.924Z,12.13
2018-10-05T09:23:13.438Z,13.00
2018-10-05T09:25:41.990Z,13.23
2018-10-05T09:28:10.530Z,12.93
2018-10-05T09:30:39.104Z,12.30
2018-10-05T09:33:08.727Z,11.70
2018-10-05T09:35:37.299Z,12.23
2018-10-05T09:38:05.844Z,12.30
2018-10-05T09:40:34.409Z,12.63
2018-10-05T09:43:02.968Z,13.10
2018-10-05T09:45:31.550Z,11.60
2018-10-05T09:48:00.216Z,13.50
2018-10-05T09:50:28.935Z,11.00
2018-10-05T09:52:58.231Z,11.77
2018-10-05T09:55:26.800Z,12.23
2018-10-05T09:57:55.350Z,12.63
2018-10-05T10:00:29.083Z,12.10
2018-10-05T10:03:00.683Z,11.90
2018-10-05T10:05:29.254Z,11.03
2018-10-05T10:07:57.946Z,12.53
2018-10-05T10:10:26.478Z,11.47
2018-10-05T10:12:55.034Z,10.70
2018-10-05T10:15:23.727Z,11.30
2018-10-05T10:17:52.376Z,11.70
2018-10-05T10:20:20.953Z,11.67
2018-10-05T10:22:49.587Z,11.53
2018-10-05T10:25:18.156Z,11.37
2018-10-05T10:27:46.854Z,10.30
2018-10-05T10:30:15.460Z,11.13
2018-10-05T10:32:44.052Z,12.70
2018-10-05T10:35:12.656Z,11.30
2018-10-05T10:37:41.236Z,11.07
2018-10-05T10:40:09.867Z,11.20
2018-10-05T10:42:38.511Z,11.60
2018-10-05T10:45:07.130Z,12.27
2018-10-05T10:47:35.904Z,11.97
2018-10-05T10:50:04.531Z,11.00
2018-10-05T10:52:33.095Z,10.40
2018-10-05T10:55:01.710Z,13.50
2018-10-05T10:57:30.288Z,10.93
2018-10-05T10:59:58.887Z,10.87
2018-10-05T11:02:27.434Z,10.07
2018-10-05T11:04:56.062Z,10.40
2018-10-05T11:07:24.659Z,9.87
2018-10-05T11:09:53.256Z,9.77
2018-10-05T11:12:21.783Z,9.07
2018-10-05T11:14:50.282Z,10.80
2018-10-05T11:17:18.834Z,10.27
2018-10-05T11:19:47.424Z,9.30
2018-10-05T11:22:15.963Z,8.97
2018-10-05T11:24:44.533Z,8.03
2018-10-05T11:27:13.031Z,9.17
2018-10-05T11:29:41.730Z,8.23
2018-10-05T11:32:10.518Z,8.60
2018-10-05T11:34:39.200Z,9.00
2018-10-05T11:37:07.898Z,9.90
2018-10-05T11:39:36.427Z,10.13
2018-10-05T11:42:04.994Z,9.63
2018-10-05T11:44:33.522Z,10.63
2018-10-05T11:47:02.063Z,9.73
2018-10-05T11:49:30.600Z,9.00
2018-10-05T11:51:59.232Z,9.53
2018-10-05T11:54:27.766Z,9.00
2018-10-05T11:56:56.337Z,8.80
2018-10-05T11:59:24.972Z,8.90
2018-10-05T12:01:53.562Z,8.30
2018-10-05T12:04:22.361Z,9.57
2018-10-05T12:06:50.963Z,9.67
2018-10-05T12:09:19.506Z,9.40
2018-10-05T12:11:48.155Z,9.50
2018-10-05T12:14:16.762Z,9.80
2018-10-05T12:16:45.334Z,8.83
2018-10-05T12:19:13.900Z,9.10
2018-10-05T12:21:42.428Z,9.37
2018-10-05T12:24:11.862Z,9.33
2018-10-05T12:26:40.411Z,10.13
2018-10-05T12:29:08.982Z,9.10
2018-10-05T12:31:37.583Z,10.03
2018-10-05T12:34:06.170Z,9.13
2018-10-05T12:36:34.728Z,8.00
2018-10-05T12:39:03.412Z,8.60
2018-10-05T12:41:32.059Z,7.80
2018-10-05T12:44:00.586Z,7.57
2018-10-05T12:46:29.143Z,8.77
2018-10-05T12:48:57.717Z,8.53
2018-10-05T12:51:26.257Z,7.80
2018-10-05T12:53:54.964Z,7.60
2018-10-05T12:56:23.635Z,7.13
2018-10-05T12:58:52.220Z,8.40
2018-10-05T13:01:21.136Z,8.30
2018-10-05T13:03:49.751Z,7.93
2018-10-05T13:06:18.324Z,7.50
2018-10-05T13:08:46.871Z,7.80
2018-10-05T13:11:15.367Z,7.23
2018-10-05T13:13:44.034Z,7.20
2018-10-05T13:16:12.633Z,6.93
2018-10-05T13:18:41.196Z,7.53
2018-10-05T13:21:09.808Z,6.90
2018-10-05T13:23:38.290Z,6.97
2018-10-05T13:26:07.202Z,7.70
2018-10-05T13:28:35.873Z,5.93
2018-10-05T13:31:04.443Z,5.90
2018-10-05T13:33:33.188Z,6.60
2018-10-05T13:36:02.069Z,6.57
2018-10-05T13:38:30.599Z,7.30
2018-10-05T13:40:59.168Z,6.77
2018-10-05T13:43:27.770Z,7.37
2018-10-05T13:45:56.324Z,7.80
2018-10-05T13:48:24.901Z,6.83
2018-10-05T13:50:53.521Z,6.60
2018-10-05T13:53:22.098Z,6.97
2018-10-05T13:55:51.683Z,6.57
2018-10-05T13:58:20.240Z,6.47
2018-10-05T14:00:48.853Z,5.93
2018-10-05T14:03:17.639Z,6.53
2018-10-05T14:05:46.195Z,6.43
2018-10-05T14:08:14.788Z,7.10
2018-10-05T14:10:43.614Z,5.97
2018-10-05T14:13:12.191Z,5.87
2018-10-05T14:15:40.727Z,6.07
2018-10-05T14:18:09.237Z,6.40
2018-10-05T14:20:37.837Z,6.60
2018-10-05T14:23:06.377Z,6.37
2018-10-05T14:25:35.120Z,5.87
2018-10-05T14:28:03.492Z,4.90
2018-10-05T14:30:32.094Z,5.43
2018-10-05T14:33:00.640Z,4.23
2018-10-05T14:35:29.204Z,4.70
2018-10-05T14:37:57.787Z,4.07
2018-10-05T14:40:26.259Z,4.47
2018-10-05T14:42:54.790Z,4.20
2018-10-05T14:45:23.322Z,4.50
2018-10-05T14:47:51.794Z,4.60
2018-10-05T14:50:20.377Z,4.07
2018-10-05T14:52:48.903Z,4.60
2018-10-05T14:55:17.484Z,4.40
2018-10-05T14:57:46.021Z,5.70
2018-10-05T15:00:14.626Z,7.03
2018-10-05T15:02:43.114Z,5.20
2018-10-05T15:05:11.675Z,5.00
2018-10-05T15:07:40.298Z,4.43
2018-10-05T15:10:08.867Z,4.63
2018-10-05T15:12:37.436Z,4.77
2018-10-05T15:15:06.732Z,4.13
2018-10-05T15:17:35.303Z,4.23
2018-10-05T15:20:03.862Z,4.60
2018-10-05T15:22:32.409Z,4.30
2018-10-05T15:25:00.877Z,4.60
2018-10-05T15:27:29.402Z,5.20
2018-10-05T15:29:57.921Z,4.57
2018-10-05T15:32:26.431Z,3.93
2018-10-05T15:34:54.969Z,3.90
2018-10-05T15:37:23.467Z,4.10
2018-10-05T15:39:51.962Z,3.73
2018-10-05T15:42:20.502Z,3.30
2018-10-05T15:44:49.153Z,3.50
2018-10-05T15:47:19.912Z,3.90
2018-10-05T15:49:48.468Z,3.70
2018-10-05T15:52:16.956Z,3.43
2018-10-05T15:54:45.453Z,4.70
2018-10-05T15:57:14.001Z,3.77
2018-10-05T15:59:42.497Z,4.80
2018-10-05T16:02:11.088Z,4.30
2018-10-05T16:04:39.593Z,5.00
2018-10-05T16:07:08.323Z,4.20
2018-10-05T16:09:36.865Z,3.50
2018-10-05T16:12:05.420Z,4.37
2018-10-05T16:14:34.108Z,4.13
2018-10-05T16:17:02.576Z,3.90
2018-10-05T16:19:31.228Z,4.07
2018-10-05T16:21:59.697Z,4.13
2018-10-05T16:24:37.623Z,3.80
2018-10-05T16:27:06.193Z,3.57
2018-10-05T16:29:35.186Z,3.53
2018-10-05T16:32:04.105Z,4.20
2018-10-05T16:34:32.990Z,4.10
2018-10-05T16:37:01.586Z,4.50
2018-10-05T16:39:30.112Z,3.60
2018-10-05T16:41:58.706Z,4.00
2018-10-05T16:44:27.609Z,5.03
2018-10-05T16:46:56.153Z,3.17
2018-10-05T16:49:24.649Z,3.97
2018-10-05T16:51:53.184Z,5.83
2018-10-05T16:54:21.856Z,9.53
2018-10-05T16:56:50.381Z,5.90
2018-10-05T16:59:18.901Z,6.07
2018-10-05T17:01:47.622Z,6.00
2018-10-05T17:04:16.195Z,5.27
2018-10-05T17:06:44.773Z,5.00
2018-10-05T17:09:14.098Z,4.70
2018-10-05T17:11:43.809Z,5.00
2018-10-05T17:14:12.373Z,5.27
2018-10-05T17:16:41.234Z,5.10
2018-10-05T17:19:09.743Z,5.30
2018-10-05T17:21:38.336Z,4.73
2018-10-05T17:24:06.998Z,5.70
2018-10-05T17:26:36.203Z,4.80
2018-10-05T17:29:04.780Z,6.47
2018-10-05T17:31:33.463Z,6.80
2018-10-05T17:34:02.093Z,7.10
2018-10-05T17:36:31.357Z,6.47
2018-10-05T17:38:59.975Z,6.33
2018-10-05T17:41:28.485Z,6.50
2018-10-05T17:43:57.094Z,8.17
2018-10-05T17:46:25.636Z,7.30
2018-10-05T17:48:54.194Z,5.73
2018-10-05T17:51:22.797Z,6.90
2018-10-05T17:53:51.366Z,9.90
2018-10-05T17:56:19.892Z,9.73
2018-10-05T17:58:48.465Z,9.13
2018-10-05T18:01:17.029Z,6.80
2018-10-05T18:03:45.582Z,6.83
2018-10-05T18:06:14.072Z,8.27
2018-10-05T18:08:42.781Z,8.93
2018-10-05T18:11:11.294Z,8.90
2018-10-05T18:13:39.773Z,8.67
2018-10-05T18:16:08.376Z,8.03
2018-10-05T18:18:36.905Z,7.87
2018-10-05T18:21:05.526Z,8.80
2018-10-05T18:23:34.035Z,7.97
2018-10-05T18:26:02.609Z,8.57
2018-10-05T18:28:31.131Z,8.60
2018-10-05T18:30:59.698Z,8.07
2018-10-05T18:33:28.219Z,9.47
2018-10-05T18:35:56.721Z,9.10
2018-10-05T18:38:25.263Z,8.43
2018-10-05T18:40:53.790Z,9.43
2018-10-05T18:43:22.330Z,8.43
2018-10-05T18:45:51.505Z,14.00
2018-10-05T18:48:20.197Z,10.83
2018-10-05T18:50:48.873Z,8.83
2018-10-05T18:53:17.431Z,10.07
2018-10-05T18:55:46.205Z,10.30
2018-10-05T18:58:14.755Z,12.00
2018-10-05T19:00:43.424Z,10.80
2018-10-05T19:03:11.917Z,11.90
2018-10-05T19:05:40.559Z,10.10
2018-10-05T19:08:09.089Z,13.33
2018-10-05T19:10:37.741Z,11.80
2018-10-05T19:13:06.353Z,10.27
2018-10-05T19:15:35.195Z,11.50
2018-10-05T19:18:03.722Z,11.43
2018-10-05T19:20:32.380Z,12.40
2018-10-05T19:23:00.896Z,12.17
2018-10-05T19:25:29.402Z,13.37
2018-10-05T19:27:58.073Z,11.87
2018-10-05T19:30:26.786Z,11.57
2018-10-05T19:32:55.417Z,10.87
2018-10-05T19:35:23.951Z,12.23
2018-10-05T19:37:52.505Z,11.80
2018-10-05T19:40:21.108Z,10.60
2018-10-05T19:42:50.785Z,10.90
2018-10-05T19:45:19.270Z,11.60
2018-10-05T19:47:48.515Z,11.87
2018-10-05T19:50:17.760Z,11.17
2018-10-05T19:52:46.335Z,11.70
2018-10-05T19:55:15.196Z,11.27
2018-10-05T19:57:43.911Z,12.70
2018-10-05T20:00:12.707Z,14.17
2018-10-05T20:02:41.336Z,12.63
2018-10-05T20:05:09.845Z,12.50
2018-10-05T20:07:38.502Z,11.57
2018-10-05T20:10:07.025Z,10.83
2018-10-05T20:12:35.583Z,11.80
2018-10-05T20:15:04.129Z,10.57
2018-10-05T20:17:32.776Z,10.70
2018-10-05T20:20:01.461Z,9.90
2018-10-05T20:22:30.132Z,9.77
2018-10-05T20:24:58.693Z,10.00
2018-10-05T20:27:27.197Z,11.20
2018-10-05T20:29:55.758Z,10.57
2018-10-05T20:32:24.546Z,9.70
2018-10-05T20:34:53.443Z,10.03
2018-10-05T20:37:22.125Z,10.20
2018-10-05T20:39:50.603Z,9.23
2018-10-05T20:42:19.256Z,9.13
2018-10-05T20:44:47.894Z,10.13
2018-10-05T20:47:16.482Z,8.63
2018-10-05T20:49:45.114Z,9.70
2018-10-05T20:52:13.652Z,9.00
2018-10-05T20:54:42.311Z,9.80
2018-10-05T20:57:10.986Z,9.27
2018-10-05T20:59:39.637Z,8.13
2018-10-05T21:02:08.975Z,10.53
2018-10-05T21:04:37.496Z,8.80
2018-10-05T21:07:06.185Z,10.50
2018-10-05T21:09:34.709Z,9.33
2018-10-05T21:12:03.934Z,8.70
2018-10-05T21:14:32.585Z,9.20
2018-10-05T21:17:01.078Z,8.40
2018-10-05T21:19:29.621Z,8.00
2018-10-05T21:21:58.249Z,8.20
2018-10-05T21:24:26.805Z,8.40
2018-10-05T21:27:02.061Z,8.07
2018-10-05T21:29:30.785Z,8.67
2018-10-05T21:31:59.717Z,8.00
2018-10-05T21:34:28.230Z,8.07
2018-10-05T21:36:56.725Z,7.77
2018-10-05T21:39:25.257Z,8.37
2018-10-05T21:41:53.773Z,8.80
2018-10-05T21:44:22.346Z,8.30
2018-10-05T21:46:50.845Z,9.67
2018-10-05T21:49:19.352Z,8.77
2018-10-05T21:51:47.918Z,8.43
2018-10-05T21:54:16.442Z,8.70
2018-10-05T21:56:44.897Z,9.63
2018-10-05T21:59:13.456Z,9.40
2018-10-05T22:01:41.976Z,9.37
2018-10-05T22:04:10.487Z,9.33
2018-10-05T22:06:38.989Z,9.67
2018-10-05T22:09:10.485Z,9.03
2018-10-05T22:11:39.240Z,9.03
2018-10-05T22:14:07.761Z,8.50
2018-10-05T22:16:36.217Z,8.23
2018-10-05T22:19:04.804Z,8.47
2018-10-05T22:21:33.253Z,10.67
2018-10-05T22:24:01.768Z,9.20
2018-10-05T22:26:30.304Z,9.50
2018-10-05T22:28:58.813Z,8.87
2018-10-05T22:31:27.288Z,9.03
2018-10-05T22:33:56.116Z,9.23
2018-10-05T22:36:24.707Z,8.87
2018-10-05T22:38:53.239Z,10.10
2018-10-05T22:41:21.816Z,8.77
2018-10-05T22:43:50.720Z,8.60
2018-10-05T22:46:19.859Z,10.63
2018-10-05T22:48:49.483Z,9.40
2018-10-05T22:51:18.130Z,10.17
2018-10-05T22:53:46.637Z,9.13
2018-10-05T22:56:15.109Z,9.23
2018-10-05T22:58:43.658Z,8.60
2018-10-05T23:01:12.158Z,9.00
2018-10-05T23:03:40.649Z,8.97
2018-10-05T23:06:09.122Z,8.73
2018-10-05T23:08:37.648Z,8.90
2018-10-05T23:11:06.291Z,9.10
2018-10-05T23:13:34.834Z,9.47
2018-10-05T23:16:03.372Z,8.83
2018-10-05T23:18:31.929Z,9.37
2018-10-05T23:21:00.403Z,8.80
2018-10-05T23:23:35.668Z,8.80
2018-10-05T23:26:04.196Z,10.07
2018-10-05T23:28:32.697Z,8.93
2018-10-05T23:31:01.211Z,8.60
2018-10-05T23:33:29.769Z,8.13
2018-10-05T23:35:58.314Z,9.13
2018-10-05T23:38:26.814Z,9.23
2018-10-05T23:40:55.361Z,9.97
2018-10-05T23:43:23.890Z,9.90
2018-10-05T23:45:52.379Z,8.70
2018-10-05T23:48:20.898Z,9.17
2018-10-05T23:50:49.369Z,9.43
2018-10-05T23:53:17.842Z,10.63
2018-10-05T23:55:46.333Z,9.60
2018-10-05T23:58:14.850Z,10.93
